sensor_id;sensor_type;location;lat;lon;timestamp;temperature;humidity
20450;DHT22;10384;51.940;8.432;2023-08-12T00:00:11;19.60;99.90
20450;DHT22;10384;51.940;8.432;2023-08-12T00:02:41;19.40;99.90
20450;DHT22;10384;51.940;8.432;2023-08-12T00:05:08;19.40;99.90
20450;DHT22;10384;51.940;8.432;2023-08-12T00:07:36;19.40;99.90
20450;DHT22;10384;51.940;8.432;2023-08-12T00:10:03;19.60;99.90
20450;DHT22;10384;51.940;8.432;2023-08-12T00:12:33;19.50;99.90
20450;DHT22;10384;51.940;8.432;2023-08-12T00:14:59;19.70;99.90
20450;DHT22;10384;51.940;8.432;2023-08-12T00:17:24;19.60;99.90
20450;DHT22;10384;51.940;8.432;2023-08-12T00:19:50;19.50;99.90
20450;DHT22;10384;51.940;8.432;2023-08-12T00:22:16;19.50;99.90
20450;DHT22;10384;51.940;8.432;2023-08-12T00:24:41;19.00;99.90
20450;DHT22;10384;51.940;8.432;2023-08-12T00:27:07;19.60;99.90
20450;DHT22;10384;51.940;8.432;2023-08-12T00:29:34;19.50;99.90
20450;DHT22;10384;51.940;8.432;2023-08-12T00:32:00;19.60;99.90
20450;DHT22;10384;51.940;8.432;2023-08-12T00:34:25;19.70;99.90
20450;DHT22;10384;51.940;8.432;2023-08-12T00:36:51;19.70;99.90
20450;DHT22;10384;51.940;8.432;2023-08-12T00:39:16;19.80;99.90
20450;DHT22;10384;51.940;8.432;2023-08-12T00:41:42;19.80;99.90
20450;DHT22;10384;51.940;8.432;2023-08-12T00:44:07;19.80;99.90
20450;DHT22;10384;51.940;8.432;2023-08-12T00:46:34;19.90;99.90
20450;DHT22;10384;51.940;8.432;2023-08-12T00:49:00;19.90;99.90
20450;DHT22;10384;51.940;8.432;2023-08-12T00:51:26;19.70;99.90
20450;DHT22;10384;51.940;8.432;2023-08-12T00:53:52;19.90;99.90
20450;DHT22;10384;51.940;8.432;2023-08-12T00:56:20;19.70;99.90
20450;DHT22;10384;51.940;8.432;2023-08-12T00:58:46;19.70;99.90
20450;DHT22;10384;51.940;8.432;2023-08-12T01:01:12;19.70;99.90
20450;DHT22;10384;51.940;8.432;2023-08-12T01:03:38;19.70;99.90
20450;DHT22;10384;51.940;8.432;2023-08-12T01:06:04;19.70;99.90
20450;DHT22;10384;51.940;8.432;2023-08-12T01:08:31;19.90;99.90
20450;DHT22;10384;51.940;8.432;2023-08-12T01:11:16;19.80;99.90
20450;DHT22;10384;51.940;8.432;2023-08-12T01:14:04;19.90;99.90
20450;DHT22;10384;51.940;8.432;2023-08-12T01:16:33;20.00;99.90
20450;DHT22;10384;51.940;8.432;2023-08-12T01:19:03;20.00;99.90
20450;DHT22;10384;51.940;8.432;2023-08-12T01:21:31;19.90;99.90
20450;DHT22;10384;51.940;8.432;2023-08-12T01:23:59;20.10;99.90
20450;DHT22;10384;51.940;8.432;2023-08-12T01:26:25;19.90;99.90
20450;DHT22;10384;51.940;8.432;2023-08-12T01:28:50;19.90;99.90
20450;DHT22;10384;51.940;8.432;2023-08-12T01:31:27;19.90;99.90
20450;DHT22;10384;51.940;8.432;2023-08-12T01:36:53;19.70;99.90
20450;DHT22;10384;51.940;8.432;2023-08-12T01:39:20;19.90;99.90
20450;DHT22;10384;51.940;8.432;2023-08-12T01:41:46;19.70;99.90
20450;DHT22;10384;51.940;8.432;2023-08-12T01:44:12;19.70;99.90
20450;DHT22;10384;51.940;8.432;2023-08-12T01:46:38;19.60;99.90
20450;DHT22;10384;51.940;8.432;2023-08-12T01:49:04;19.60;99.90
20450;DHT22;10384;51.940;8.432;2023-08-12T01:51:29;19.50;99.90
20450;DHT22;10384;51.940;8.432;2023-08-12T01:53:55;19.40;99.90
20450;DHT22;10384;51.940;8.432;2023-08-12T01:56:20;19.50;99.90
20450;DHT22;10384;51.940;8.432;2023-08-12T01:58:46;19.40;99.90
20450;DHT22;10384;51.940;8.432;2023-08-12T02:01:12;19.30;99.90
20450;DHT22;10384;51.940;8.432;2023-08-12T02:03:37;19.30;99.90
20450;DHT22;10384;51.940;8.432;2023-08-12T02:06:04;19.30;99.90
20450;DHT22;10384;51.940;8.432;2023-08-12T02:08:29;19.40;99.90
20450;DHT22;10384;51.940;8.432;2023-08-12T02:10:55;19.50;99.90
20450;DHT22;10384;51.940;8.432;2023-08-12T02:13:20;19.20;99.90
20450;DHT22;10384;51.940;8.432;2023-08-12T02:15:46;19.10;99.90
20450;DHT22;10384;51.940;8.432;2023-08-12T02:18:11;19.10;99.90
20450;DHT22;10384;51.940;8.432;2023-08-12T02:20:37;19.10;99.90
20450;DHT22;10384;51.940;8.432;2023-08-12T02:23:03;19.20;99.90
20450;DHT22;10384;51.940;8.432;2023-08-12T02:25:28;19.00;99.90
20450;DHT22;10384;51.940;8.432;2023-08-12T02:27:54;19.00;99.90
20450;DHT22;10384;51.940;8.432;2023-08-12T02:30:19;19.00;99.90
20450;DHT22;10384;51.940;8.432;2023-08-12T02:32:45;19.00;99.90
20450;DHT22;10384;51.940;8.432;2023-08-12T02:35:11;19.00;99.90
20450;DHT22;10384;51.940;8.432;2023-08-12T02:37:37;19.00;99.90
20450;DHT22;10384;51.940;8.432;2023-08-12T02:40:04;19.00;99.90
20450;DHT22;10384;51.940;8.432;2023-08-12T02:42:33;18.90;99.90
20450;DHT22;10384;51.940;8.432;2023-08-12T02:44:58;19.00;99.90
20450;DHT22;10384;51.940;8.432;2023-08-12T02:47:25;19.20;99.90
20450;DHT22;10384;51.940;8.432;2023-08-12T02:49:51;19.00;99.90
20450;DHT22;10384;51.940;8.432;2023-08-12T02:52:16;18.90;99.90
20450;DHT22;10384;51.940;8.432;2023-08-12T02:54:42;18.90;99.90
20450;DHT22;10384;51.940;8.432;2023-08-12T02:57:07;19.00;99.90
20450;DHT22;10384;51.940;8.432;2023-08-12T02:59:33;19.10;99.90
20450;DHT22;10384;51.940;8.432;2023-08-12T03:01:59;19.00;99.90
20450;DHT22;10384;51.940;8.432;2023-08-12T03:04:25;18.90;99.90
20450;DHT22;10384;51.940;8.432;2023-08-12T03:06:50;18.80;99.90
20450;DHT22;10384;51.940;8.432;2023-08-12T03:16:35;18.80;99.90
20450;DHT22;10384;51.940;8.432;2023-08-12T03:23:53;18.80;99.90
20450;DHT22;10384;51.940;8.432;2023-08-12T03:26:19;18.90;99.90
20450;DHT22;10384;51.940;8.432;2023-08-12T03:28:44;19.00;99.90
20450;DHT22;10384;51.940;8.432;2023-08-12T03:31:10;18.90;99.90
20450;DHT22;10384;51.940;8.432;2023-08-12T03:33:36;18.70;99.90
20450;DHT22;10384;51.940;8.432;2023-08-12T03:36:01;18.80;99.90
20450;DHT22;10384;51.940;8.432;2023-08-12T03:38:27;18.70;99.90
20450;DHT22;10384;51.940;8.432;2023-08-12T03:40:52;19.00;99.90
20450;DHT22;10384;51.940;8.432;2023-08-12T03:43:18;18.80;99.90
20450;DHT22;10384;51.940;8.432;2023-08-12T03:45:44;18.80;99.90
20450;DHT22;10384;51.940;8.432;2023-08-12T03:48:09;19.00;99.90
20450;DHT22;10384;51.940;8.432;2023-08-12T03:50:36;18.90;99.90
20450;DHT22;10384;51.940;8.432;2023-08-12T03:53:02;18.90;99.90
20450;DHT22;10384;51.940;8.432;2023-08-12T03:55:32;18.70;99.90
20450;DHT22;10384;51.940;8.432;2023-08-12T04:00:24;18.60;99.90
20450;DHT22;10384;51.940;8.432;2023-08-12T04:02:49;18.60;99.90
20450;DHT22;10384;51.940;8.432;2023-08-12T04:05:15;18.80;99.90
20450;DHT22;10384;51.940;8.432;2023-08-12T04:07:41;18.90;99.90
20450;DHT22;10384;51.940;8.432;2023-08-12T04:10:07;18.70;99.90
20450;DHT22;10384;51.940;8.432;2023-08-12T04:12:32;18.70;99.90
20450;DHT22;10384;51.940;8.432;2023-08-12T04:14:58;19.00;99.90
20450;DHT22;10384;51.940;8.432;2023-08-12T04:17:25;18.90;99.90
20450;DHT22;10384;51.940;8.432;2023-08-12T04:19:50;18.80;99.90
20450;DHT22;10384;51.940;8.432;2023-08-12T04:22:16;18.90;99.90
20450;DHT22;10384;51.940;8.432;2023-08-12T04:24:42;18.80;99.90
20450;DHT22;10384;51.940;8.432;2023-08-12T04:27:07;19.00;99.90
20450;DHT22;10384;51.940;8.432;2023-08-12T04:29:33;18.80;99.90
20450;DHT22;10384;51.940;8.432;2023-08-12T04:31:59;18.90;99.90
20450;DHT22;10384;51.940;8.432;2023-08-12T04:34:25;18.70;99.90
20450;DHT22;10384;51.940;8.432;2023-08-12T04:36:50;18.90;99.90
20450;DHT22;10384;51.940;8.432;2023-08-12T04:39:16;18.70;99.90
20450;DHT22;10384;51.940;8.432;2023-08-12T04:41:42;18.80;99.90
20450;DHT22;10384;51.940;8.432;2023-08-12T04:44:07;19.10;99.90
20450;DHT22;10384;51.940;8.432;2023-08-12T04:46:33;18.90;99.90
20450;DHT22;10384;51.940;8.432;2023-08-12T04:48:58;18.90;99.90
20450;DHT22;10384;51.940;8.432;2023-08-12T04:51:24;19.00;99.90
20450;DHT22;10384;51.940;8.432;2023-08-12T04:53:50;18.90;99.90
20450;DHT22;10384;51.940;8.432;2023-08-12T04:56:15;18.90;99.90
20450;DHT22;10384;51.940;8.432;2023-08-12T05:01:08;18.60;99.90
20450;DHT22;10384;51.940;8.432;2023-08-12T05:03:33;18.80;99.90
20450;DHT22;10384;51.940;8.432;2023-08-12T05:05:59;18.80;99.90
20450;DHT22;10384;51.940;8.432;2023-08-12T05:08:24;18.80;99.90
20450;DHT22;10384;51.940;8.432;2023-08-12T05:10:50;18.70;99.90
20450;DHT22;10384;51.940;8.432;2023-08-12T05:13:16;18.80;99.90
20450;DHT22;10384;51.940;8.432;2023-08-12T05:15:45;18.70;99.90
20450;DHT22;10384;51.940;8.432;2023-08-12T05:18:12;18.80;99.90
20450;DHT22;10384;51.940;8.432;2023-08-12T05:20:42;18.80;99.90
20450;DHT22;10384;51.940;8.432;2023-08-12T05:23:08;18.80;99.90
20450;DHT22;10384;51.940;8.432;2023-08-12T05:25:33;19.00;99.90
20450;DHT22;10384;51.940;8.432;2023-08-12T05:27:59;19.10;99.90
20450;DHT22;10384;51.940;8.432;2023-08-12T05:30:24;19.00;99.90
20450;DHT22;10384;51.940;8.432;2023-08-12T05:32:50;19.00;99.90
20450;DHT22;10384;51.940;8.432;2023-08-12T05:35:16;19.10;99.90
20450;DHT22;10384;51.940;8.432;2023-08-12T05:37:41;19.20;99.90
20450;DHT22;10384;51.940;8.432;2023-08-12T05:40:08;19.20;99.90
20450;DHT22;10384;51.940;8.432;2023-08-12T05:42:35;19.10;99.90
20450;DHT22;10384;51.940;8.432;2023-08-12T05:45:01;19.00;99.90
20450;DHT22;10384;51.940;8.432;2023-08-12T05:47:26;19.10;99.90
20450;DHT22;10384;51.940;8.432;2023-08-12T05:49:52;19.10;99.90
20450;DHT22;10384;51.940;8.432;2023-08-12T05:52:17;19.20;99.90
20450;DHT22;10384;51.940;8.432;2023-08-12T05:54:43;19.10;99.90
20450;DHT22;10384;51.940;8.432;2023-08-12T05:57:08;19.10;99.90
20450;DHT22;10384;51.940;8.432;2023-08-12T05:59:34;19.20;99.90
20450;DHT22;10384;51.940;8.432;2023-08-12T06:02:00;19.40;99.90
20450;DHT22;10384;51.940;8.432;2023-08-12T06:04:25;19.30;99.90
20450;DHT22;10384;51.940;8.432;2023-08-12T06:06:51;19.30;99.90
20450;DHT22;10384;51.940;8.432;2023-08-12T06:09:16;19.30;99.90
20450;DHT22;10384;51.940;8.432;2023-08-12T06:11:42;19.40;99.90
20450;DHT22;10384;51.940;8.432;2023-08-12T06:14:07;19.50;99.90
20450;DHT22;10384;51.940;8.432;2023-08-12T06:16:33;19.50;99.90
20450;DHT22;10384;51.940;8.432;2023-08-12T06:18:59;19.50;99.90
20450;DHT22;10384;51.940;8.432;2023-08-12T06:23:51;19.30;99.90
20450;DHT22;10384;51.940;8.432;2023-08-12T06:28:43;19.40;99.90
20450;DHT22;10384;51.940;8.432;2023-08-12T06:31:09;19.50;99.90
20450;DHT22;10384;51.940;8.432;2023-08-12T06:33:34;19.70;99.90
20450;DHT22;10384;51.940;8.432;2023-08-12T06:36:00;19.60;99.90
20450;DHT22;10384;51.940;8.432;2023-08-12T06:38:26;19.70;99.90
20450;DHT22;10384;51.940;8.432;2023-08-12T06:40:51;19.80;99.90
20450;DHT22;10384;51.940;8.432;2023-08-12T06:43:17;19.80;99.90
20450;DHT22;10384;51.940;8.432;2023-08-12T06:45:42;19.90;99.90
20450;DHT22;10384;51.940;8.432;2023-08-12T06:48:08;19.80;99.90
20450;DHT22;10384;51.940;8.432;2023-08-12T06:50:33;20.00;99.90
20450;DHT22;10384;51.940;8.432;2023-08-12T06:52:59;20.00;99.90
20450;DHT22;10384;51.940;8.432;2023-08-12T06:55:25;20.10;99.90
20450;DHT22;10384;51.940;8.432;2023-08-12T06:57:50;20.00;99.90
20450;DHT22;10384;51.940;8.432;2023-08-12T07:00:16;19.90;99.90
20450;DHT22;10384;51.940;8.432;2023-08-12T07:02:41;19.80;99.90
20450;DHT22;10384;51.940;8.432;2023-08-12T07:05:08;19.70;99.90
20450;DHT22;10384;51.940;8.432;2023-08-12T07:07:34;19.70;99.90
20450;DHT22;10384;51.940;8.432;2023-08-12T07:09:59;19.90;99.90
20450;DHT22;10384;51.940;8.432;2023-08-12T07:12:25;19.60;99.90
20450;DHT22;10384;51.940;8.432;2023-08-12T07:14:50;19.60;99.90
20450;DHT22;10384;51.940;8.432;2023-08-12T07:17:16;19.60;99.90
20450;DHT22;10384;51.940;8.432;2023-08-12T07:19:42;19.80;99.90
20450;DHT22;10384;51.940;8.432;2023-08-12T07:22:07;19.90;99.90
20450;DHT22;10384;51.940;8.432;2023-08-12T07:24:33;20.00;99.90
20450;DHT22;10384;51.940;8.432;2023-08-12T07:26:58;19.90;99.90
20450;DHT22;10384;51.940;8.432;2023-08-12T07:29:24;20.30;99.90
20450;DHT22;10384;51.940;8.432;2023-08-12T07:31:49;20.30;99.90
20450;DHT22;10384;51.940;8.432;2023-08-12T07:34:16;20.40;99.90
20450;DHT22;10384;51.940;8.432;2023-08-12T07:36:42;20.40;99.90
20450;DHT22;10384;51.940;8.432;2023-08-12T07:39:08;20.40;99.90
20450;DHT22;10384;51.940;8.432;2023-08-12T07:41:33;20.40;99.90
20450;DHT22;10384;51.940;8.432;2023-08-12T07:43:59;20.40;99.90
20450;DHT22;10384;51.940;8.432;2023-08-12T07:46:24;20.30;99.90
20450;DHT22;10384;51.940;8.432;2023-08-12T07:48:50;20.50;99.90
20450;DHT22;10384;51.940;8.432;2023-08-12T07:51:15;20.50;99.90
20450;DHT22;10384;51.940;8.432;2023-08-12T07:53:41;20.50;99.90
20450;DHT22;10384;51.940;8.432;2023-08-12T07:56:07;20.50;99.90
20450;DHT22;10384;51.940;8.432;2023-08-12T07:58:32;20.50;99.90
20450;DHT22;10384;51.940;8.432;2023-08-12T08:00:58;20.40;99.90
20450;DHT22;10384;51.940;8.432;2023-08-12T08:03:23;20.50;99.90
20450;DHT22;10384;51.940;8.432;2023-08-12T08:05:49;20.30;99.90
20450;DHT22;10384;51.940;8.432;2023-08-12T08:08:15;20.50;99.90
20450;DHT22;10384;51.940;8.432;2023-08-12T08:10:40;20.30;99.90
20450;DHT22;10384;51.940;8.432;2023-08-12T08:13:06;20.30;99.90
20450;DHT22;10384;51.940;8.432;2023-08-12T08:15:31;20.40;99.90
20450;DHT22;10384;51.940;8.432;2023-08-12T08:17:57;20.40;99.90
20450;DHT22;10384;51.940;8.432;2023-08-12T08:20:22;20.50;99.90
20450;DHT22;10384;51.940;8.432;2023-08-12T08:22:48;20.50;99.90
20450;DHT22;10384;51.940;8.432;2023-08-12T08:25:14;20.40;99.90
20450;DHT22;10384;51.940;8.432;2023-08-12T08:27:39;20.50;99.90
20450;DHT22;10384;51.940;8.432;2023-08-12T08:30:06;20.50;99.90
20450;DHT22;10384;51.940;8.432;2023-08-12T08:32:32;20.10;99.90
20450;DHT22;10384;51.940;8.432;2023-08-12T08:34:58;20.60;99.90
20450;DHT22;10384;51.940;8.432;2023-08-12T08:37:23;20.30;99.90
20450;DHT22;10384;51.940;8.432;2023-08-12T08:39:49;20.30;99.90
20450;DHT22;10384;51.940;8.432;2023-08-12T08:42:15;20.20;99.90
20450;DHT22;10384;51.940;8.432;2023-08-12T08:44:42;20.10;99.90
20450;DHT22;10384;51.940;8.432;2023-08-12T08:47:09;20.30;99.90
20450;DHT22;10384;51.940;8.432;2023-08-12T08:49:36;20.20;99.90
20450;DHT22;10384;51.940;8.432;2023-08-12T08:52:02;20.30;99.90
20450;DHT22;10384;51.940;8.432;2023-08-12T08:54:28;20.20;99.90
20450;DHT22;10384;51.940;8.432;2023-08-12T08:56:54;20.30;99.90
20450;DHT22;10384;51.940;8.432;2023-08-12T08:59:19;20.30;99.90
20450;DHT22;10384;51.940;8.432;2023-08-12T09:01:47;20.30;99.90
20450;DHT22;10384;51.940;8.432;2023-08-12T09:04:15;20.40;99.90
20450;DHT22;10384;51.940;8.432;2023-08-12T09:06:42;20.50;99.90
20450;DHT22;10384;51.940;8.432;2023-08-12T09:09:11;20.50;99.90
20450;DHT22;10384;51.940;8.432;2023-08-12T09:11:38;20.70;99.90
20450;DHT22;10384;51.940;8.432;2023-08-12T09:14:05;20.60;99.90
20450;DHT22;10384;51.940;8.432;2023-08-12T09:16:30;20.70;99.90
20450;DHT22;10384;51.940;8.432;2023-08-12T09:18:56;20.90;99.90
20450;DHT22;10384;51.940;8.432;2023-08-12T09:21:22;21.00;99.90
20450;DHT22;10384;51.940;8.432;2023-08-12T09:26:16;21.00;99.90
20450;DHT22;10384;51.940;8.432;2023-08-12T09:28:42;21.30;99.90
20450;DHT22;10384;51.940;8.432;2023-08-12T09:31:08;21.50;99.90
20450;DHT22;10384;51.940;8.432;2023-08-12T09:33:39;21.30;99.90
20450;DHT22;10384;51.940;8.432;2023-08-12T09:36:05;21.40;99.90
20450;DHT22;10384;51.940;8.432;2023-08-12T09:38:31;21.60;99.90
20450;DHT22;10384;51.940;8.432;2023-08-12T09:43:28;22.00;99.90
20450;DHT22;10384;51.940;8.432;2023-08-12T09:45:56;22.20;99.90
20450;DHT22;10384;51.940;8.432;2023-08-12T09:48:23;22.00;99.90
20450;DHT22;10384;51.940;8.432;2023-08-12T09:50:49;21.90;99.90
20450;DHT22;10384;51.940;8.432;2023-08-12T09:53:15;21.90;99.90
20450;DHT22;10384;51.940;8.432;2023-08-12T09:55:42;22.00;99.90
20450;DHT22;10384;51.940;8.432;2023-08-12T09:58:09;22.10;99.90
20450;DHT22;10384;51.940;8.432;2023-08-12T10:00:35;22.10;99.90
20450;DHT22;10384;51.940;8.432;2023-08-12T10:03:02;22.10;99.90
20450;DHT22;10384;51.940;8.432;2023-08-12T10:05:28;22.10;99.90
20450;DHT22;10384;51.940;8.432;2023-08-12T10:07:55;22.20;99.90
20450;DHT22;10384;51.940;8.432;2023-08-12T10:10:21;22.40;99.90
20450;DHT22;10384;51.940;8.432;2023-08-12T10:12:48;22.60;99.90
20450;DHT22;10384;51.940;8.432;2023-08-12T10:15:14;22.70;99.90
20450;DHT22;10384;51.940;8.432;2023-08-12T10:17:40;22.70;99.90
20450;DHT22;10384;51.940;8.432;2023-08-12T10:20:08;22.60;99.90
20450;DHT22;10384;51.940;8.432;2023-08-12T10:22:34;22.40;99.90
20450;DHT22;10384;51.940;8.432;2023-08-12T10:25:02;22.30;99.90
20450;DHT22;10384;51.940;8.432;2023-08-12T10:27:28;22.20;99.90
20450;DHT22;10384;51.940;8.432;2023-08-12T10:29:57;22.10;99.90
20450;DHT22;10384;51.940;8.432;2023-08-12T10:32:25;22.10;99.90
20450;DHT22;10384;51.940;8.432;2023-08-12T10:34:56;22.10;99.90
20450;DHT22;10384;51.940;8.432;2023-08-12T10:37:23;21.90;99.90
20450;DHT22;10384;51.940;8.432;2023-08-12T10:39:51;21.90;99.90
20450;DHT22;10384;51.940;8.432;2023-08-12T10:42:48;21.90;99.90
20450;DHT22;10384;51.940;8.432;2023-08-12T10:45:15;22.00;99.90
20450;DHT22;10384;51.940;8.432;2023-08-12T10:47:42;22.10;99.90
20450;DHT22;10384;51.940;8.432;2023-08-12T10:50:22;22.10;99.90
20450;DHT22;10384;51.940;8.432;2023-08-12T10:52:53;22.10;99.90
20450;DHT22;10384;51.940;8.432;2023-08-12T10:55:24;22.40;99.90
20450;DHT22;10384;51.940;8.432;2023-08-12T10:57:51;22.70;99.90
20450;DHT22;10384;51.940;8.432;2023-08-12T11:00:19;22.70;99.90
20450;DHT22;10384;51.940;8.432;2023-08-12T11:02:55;22.70;99.90
20450;DHT22;10384;51.940;8.432;2023-08-12T11:05:22;22.70;99.90
20450;DHT22;10384;51.940;8.432;2023-08-12T11:07:59;22.90;99.90
20450;DHT22;10384;51.940;8.432;2023-08-12T11:10:30;23.20;99.90
20450;DHT22;10384;51.940;8.432;2023-08-12T11:12:57;23.20;99.90
20450;DHT22;10384;51.940;8.432;2023-08-12T11:15:30;23.30;99.90
20450;DHT22;10384;51.940;8.432;2023-08-12T11:17:58;23.30;99.90
20450;DHT22;10384;51.940;8.432;2023-08-12T11:20:23;23.30;99.90
20450;DHT22;10384;51.940;8.432;2023-08-12T11:22:50;23.10;99.90
20450;DHT22;10384;51.940;8.432;2023-08-12T11:25:16;23.00;99.90
20450;DHT22;10384;51.940;8.432;2023-08-12T11:27:45;23.10;99.90
20450;DHT22;10384;51.940;8.432;2023-08-12T11:30:16;22.90;99.90
20450;DHT22;10384;51.940;8.432;2023-08-12T11:32:47;23.20;99.90
20450;DHT22;10384;51.940;8.432;2023-08-12T11:35:15;22.90;99.90
20450;DHT22;10384;51.940;8.432;2023-08-12T11:37:42;22.80;99.90
20450;DHT22;10384;51.940;8.432;2023-08-12T11:40:09;22.60;99.90
20450;DHT22;10384;51.940;8.432;2023-08-12T11:42:36;22.60;99.90
20450;DHT22;10384;51.940;8.432;2023-08-12T11:45:03;22.60;99.90
20450;DHT22;10384;51.940;8.432;2023-08-12T11:47:29;22.70;99.90
20450;DHT22;10384;51.940;8.432;2023-08-12T11:49:54;23.00;99.90
20450;DHT22;10384;51.940;8.432;2023-08-12T11:52:20;23.10;99.90
20450;DHT22;10384;51.940;8.432;2023-08-12T11:54:47;23.40;99.90
20450;DHT22;10384;51.940;8.432;2023-08-12T11:57:13;23.20;99.90
20450;DHT22;10384;51.940;8.432;2023-08-12T11:59:38;23.30;99.90
20450;DHT22;10384;51.940;8.432;2023-08-12T12:02:04;23.20;99.90
20450;DHT22;10384;51.940;8.432;2023-08-12T12:04:31;23.40;99.90
20450;DHT22;10384;51.940;8.432;2023-08-12T12:06:57;23.40;99.90
20450;DHT22;10384;51.940;8.432;2023-08-12T12:09:22;23.70;99.90
20450;DHT22;10384;51.940;8.432;2023-08-12T13:56:50;22.60;99.90
20450;DHT22;10384;51.940;8.432;2023-08-12T14:01:42;22.70;99.90
20450;DHT22;10384;51.940;8.432;2023-08-12T14:04:07;22.80;99.90
20450;DHT22;10384;51.940;8.432;2023-08-12T14:06:33;22.60;99.90
20450;DHT22;10384;51.940;8.432;2023-08-12T14:08:59;22.70;99.90
20450;DHT22;10384;51.940;8.432;2023-08-12T14:13:51;22.50;99.90
20450;DHT22;10384;51.940;8.432;2023-08-12T14:16:16;23.10;99.90
20450;DHT22;10384;51.940;8.432;2023-08-12T14:21:08;21.80;99.90
20450;DHT22;10384;51.940;8.432;2023-08-12T14:23:33;22.40;99.90
20450;DHT22;10384;51.940;8.432;2023-08-12T14:25:59;21.60;99.90
20450;DHT22;10384;51.940;8.432;2023-08-12T14:28:25;22.30;99.90
20450;DHT22;10384;51.940;8.432;2023-08-12T14:30:50;23.10;99.90
20450;DHT22;10384;51.940;8.432;2023-08-12T14:33:16;21.80;99.90
20450;DHT22;10384;51.940;8.432;2023-08-12T14:35:41;22.10;99.90
20450;DHT22;10384;51.940;8.432;2023-08-12T14:42:59;21.50;99.90
20450;DHT22;10384;51.940;8.432;2023-08-12T18:58:47;19.10;99.90
20450;DHT22;10384;51.940;8.432;2023-08-12T19:01:12;19.20;99.90
20450;DHT22;10384;51.940;8.432;2023-08-12T19:03:38;19.30;99.90
20450;DHT22;10384;51.940;8.432;2023-08-12T19:06:03;19.40;99.90
20450;DHT22;10384;51.940;8.432;2023-08-12T19:08:29;19.10;99.90
20450;DHT22;10384;51.940;8.432;2023-08-12T19:10:58;19.00;99.90
20450;DHT22;10384;51.940;8.432;2023-08-12T19:13:24;18.90;99.90
20450;DHT22;10384;51.940;8.432;2023-08-12T19:15:50;18.90;99.90
20450;DHT22;10384;51.940;8.432;2023-08-12T19:18:16;18.80;99.90
20450;DHT22;10384;51.940;8.432;2023-08-12T19:20:41;18.80;99.90
20450;DHT22;10384;51.940;8.432;2023-08-12T19:23:07;18.70;99.90
20450;DHT22;10384;51.940;8.432;2023-08-12T19:25:33;18.70;99.90
20450;DHT22;10384;51.940;8.432;2023-08-12T19:27:58;18.70;99.90
20450;DHT22;10384;51.940;8.432;2023-08-12T19:30:24;18.50;99.90
20450;DHT22;10384;51.940;8.432;2023-08-12T19:32:51;18.50;99.90
20450;DHT22;10384;51.940;8.432;2023-08-12T19:35:18;18.40;99.90
20450;DHT22;10384;51.940;8.432;2023-08-12T19:37:44;18.40;99.90
20450;DHT22;10384;51.940;8.432;2023-08-12T19:40:10;18.40;99.90
20450;DHT22;10384;51.940;8.432;2023-08-12T19:42:36;18.30;99.90
20450;DHT22;10384;51.940;8.432;2023-08-12T19:45:04;18.30;99.90
20450;DHT22;10384;51.940;8.432;2023-08-12T19:47:38;18.20;99.90
20450;DHT22;10384;51.940;8.432;2023-08-12T19:50:06;18.10;99.90
20450;DHT22;10384;51.940;8.432;2023-08-12T19:52:33;18.20;99.90
20450;DHT22;10384;51.940;8.432;2023-08-12T19:55:00;18.20;99.90
20450;DHT22;10384;51.940;8.432;2023-08-12T19:57:26;18.00;99.90
20450;DHT22;10384;51.940;8.432;2023-08-12T19:59:52;18.00;99.90
20450;DHT22;10384;51.940;8.432;2023-08-12T20:02:19;17.90;99.90
20450;DHT22;10384;51.940;8.432;2023-08-12T20:04:45;17.80;99.90
20450;DHT22;10384;51.940;8.432;2023-08-12T20:07:11;17.70;99.90
20450;DHT22;10384;51.940;8.432;2023-08-12T20:09:37;17.80;99.90
20450;DHT22;10384;51.940;8.432;2023-08-12T20:12:02;18.00;99.90
20450;DHT22;10384;51.940;8.432;2023-08-12T20:14:28;17.70;99.90
20450;DHT22;10384;51.940;8.432;2023-08-12T20:16:54;18.00;99.90
20450;DHT22;10384;51.940;8.432;2023-08-12T20:19:20;17.80;99.90
20450;DHT22;10384;51.940;8.432;2023-08-12T20:21:46;17.60;99.90
20450;DHT22;10384;51.940;8.432;2023-08-12T20:24:12;17.70;99.90
20450;DHT22;10384;51.940;8.432;2023-08-12T20:26:37;17.80;99.90
20450;DHT22;10384;51.940;8.432;2023-08-12T20:29:03;17.50;99.90
20450;DHT22;10384;51.940;8.432;2023-08-12T20:31:28;17.60;99.90
20450;DHT22;10384;51.940;8.432;2023-08-12T20:33:54;17.60;99.90
20450;DHT22;10384;51.940;8.432;2023-08-12T20:36:20;17.50;99.90
20450;DHT22;10384;51.940;8.432;2023-08-12T20:38:46;17.50;99.90
20450;DHT22;10384;51.940;8.432;2023-08-12T20:41:11;17.20;99.90
20450;DHT22;10384;51.940;8.432;2023-08-12T20:43:38;17.50;99.90
20450;DHT22;10384;51.940;8.432;2023-08-12T20:46:03;17.30;99.90
20450;DHT22;10384;51.940;8.432;2023-08-12T20:48:31;17.30;99.90
20450;DHT22;10384;51.940;8.432;2023-08-12T20:50:56;17.30;99.90
20450;DHT22;10384;51.940;8.432;2023-08-12T20:53:22;17.30;99.90
20450;DHT22;10384;51.940;8.432;2023-08-12T20:55:50;17.40;99.90
20450;DHT22;10384;51.940;8.432;2023-08-12T20:58:16;17.20;99.90
20450;DHT22;10384;51.940;8.432;2023-08-12T21:00:42;17.10;99.90
20450;DHT22;10384;51.940;8.432;2023-08-12T21:03:08;16.90;99.90
20450;DHT22;10384;51.940;8.432;2023-08-12T21:05:36;17.10;99.90
20450;DHT22;10384;51.940;8.432;2023-08-12T21:08:02;17.00;99.90
20450;DHT22;10384;51.940;8.432;2023-08-12T21:10:28;16.90;99.90
20450;DHT22;10384;51.940;8.432;2023-08-12T21:12:54;16.80;99.90
20450;DHT22;10384;51.940;8.432;2023-08-12T21:15:19;16.90;99.90
20450;DHT22;10384;51.940;8.432;2023-08-12T21:17:45;16.80;99.90
20450;DHT22;10384;51.940;8.432;2023-08-12T21:20:10;16.80;99.90
20450;DHT22;10384;51.940;8.432;2023-08-12T21:22:36;16.80;99.90
20450;DHT22;10384;51.940;8.432;2023-08-12T21:25:02;16.80;99.90
20450;DHT22;10384;51.940;8.432;2023-08-12T21:27:28;16.80;99.90
20450;DHT22;10384;51.940;8.432;2023-08-12T21:29:53;16.80;99.90
20450;DHT22;10384;51.940;8.432;2023-08-12T21:32:19;16.90;99.90
20450;DHT22;10384;51.940;8.432;2023-08-12T21:34:44;16.80;99.90
20450;DHT22;10384;51.940;8.432;2023-08-12T21:37:10;16.80;99.90
20450;DHT22;10384;51.940;8.432;2023-08-12T21:39:36;16.90;99.90
20450;DHT22;10384;51.940;8.432;2023-08-12T21:42:01;16.80;99.90
20450;DHT22;10384;51.940;8.432;2023-08-12T21:44:28;16.70;99.90
20450;DHT22;10384;51.940;8.432;2023-08-12T21:46:53;16.80;99.90
20450;DHT22;10384;51.940;8.432;2023-08-12T21:49:19;16.60;99.90
20450;DHT22;10384;51.940;8.432;2023-08-12T21:51:44;16.80;99.90
20450;DHT22;10384;51.940;8.432;2023-08-12T21:54:10;16.80;99.90
20450;DHT22;10384;51.940;8.432;2023-08-12T21:56:35;16.80;99.90
20450;DHT22;10384;51.940;8.432;2023-08-12T21:59:01;16.70;99.90
20450;DHT22;10384;51.940;8.432;2023-08-12T22:01:26;16.60;99.90
20450;DHT22;10384;51.940;8.432;2023-08-12T22:03:52;16.50;99.90